Time;durP1;ratioP1;P1;durP2;ratioP2;P2;SDS_P1;SDS_P2;PMS_P1;PMS_P2;Temp;Humidity;BMP_temperature;BMP_pressure;BME280_temperature;BME280_humidity;BME280_pressure;Samples;Min_cycle;Max_cycle;Signal;HPM_P1;HPM_P2
2023/07/11 00:00:50;;;;;;;19.30;13.60;;;;;;;19.51;91.36;97902.71;106295;1282;25509;-77
2023/07/11 00:03:34;;;;;;;14.60;13.20;;;;;;;19.47;91.91;97900.68;106292;1282;22548;-76
2023/07/11 00:06:07;;;;;;;15.80;13.80;;;;;;;19.43;91.60;97895.44;106270;1282;22960;-77
2023/07/11 00:08:38;;;;;;;16.00;13.70;;;;;;;19.43;91.43;97893.79;106369;1282;22569;-75
2023/07/11 00:11:10;;;;;;;16.10;14.00;;;;;;;19.40;91.31;97893.36;106317;1282;22814;-76
2023/07/11 00:13:39;;;;;;;15.20;13.50;;;;;;;19.40;91.61;97894.60;106396;1282;22628;-76
2023/07/11 00:16:10;;;;;;;14.80;13.10;;;;;;;19.42;93.13;97899.64;106392;1282;23907;-75
2023/07/11 00:18:37;;;;;;;15.70;14.10;;;;;;;19.40;92.50;97895.20;106437;1282;22485;-75
2023/07/11 00:21:04;;;;;;;16.50;13.70;;;;;;;19.36;92.53;97895.84;106313;1282;23040;-75
2023/07/11 00:23:31;;;;;;;15.20;12.80;;;;;;;19.36;93.07;97894.97;106272;1282;25308;-75
2023/07/11 00:25:58;;;;;;;14.40;12.40;;;;;;;19.35;93.68;97897.81;106324;1282;25297;-75
2023/07/11 00:28:25;;;;;;;14.00;12.20;;;;;;;19.34;94.24;97895.86;106338;1282;24226;-76
2023/07/11 00:30:54;;;;;;;14.40;11.90;;;;;;;19.37;95.41;97895.84;106316;1282;25295;-78
2023/07/11 00:33:21;;;;;;;16.10;11.80;;;;;;;19.36;95.13;97904.50;106276;1282;25311;-77
2023/07/11 00:35:52;;;;;;;13.80;11.10;;;;;;;19.38;95.09;97911.73;106381;1282;22541;-75
2023/07/11 00:38:20;;;;;;;12.90;11.50;;;;;;;19.39;95.15;97911.28;106266;1282;25343;-75
2023/07/11 00:40:49;;;;;;;15.80;12.60;;;;;;;19.40;95.56;97909.75;106335;1272;22552;-77
2023/07/11 00:43:21;;;;;;;16.50;11.30;;;;;;;19.43;94.91;97916.36;106305;1282;24237;-77
2023/07/11 00:46:10;;;;;;;22.10;11.50;;;;;;;19.45;95.17;97914.61;106217;1282;23151;-75
2023/07/11 00:48:45;;;;;;;14.30;12.10;;;;;;;19.45;94.29;97914.14;106285;1262;24186;-76
2023/07/11 00:51:16;;;;;;;18.60;11.90;;;;;;;19.43;94.02;97914.02;106263;1282;24326;-76
2023/07/11 00:53:43;;;;;;;14.00;11.20;;;;;;;19.45;95.25;97907.98;106285;1282;22535;-77
2023/07/11 00:56:14;;;;;;;12.90;11.10;;;;;;;19.45;95.66;97903.13;106318;1282;22541;-76
2023/07/11 00:58:44;;;;;;;14.50;11.40;;;;;;;19.45;95.18;97901.50;106314;1282;22537;-76
2023/07/11 01:01:12;;;;;;;13.40;10.50;;;;;;;19.44;95.55;97901.00;106270;1282;25410;-76
2023/07/11 01:03:39;;;;;;;12.00;10.50;;;;;;;19.42;95.50;97903.86;106310;1282;23031;-75
2023/07/11 01:06:17;;;;;;;13.00;10.10;;;;;;;19.41;95.23;97904.83;106343;1282;25404;-75
2023/07/11 01:08:45;;;;;;;13.20;11.20;;;;;;;19.34;94.96;97896.65;106304;1282;23030;-75
2023/07/11 01:11:12;;;;;;;14.10;11.20;;;;;;;19.35;95.56;97906.11;106414;1260;22649;-76
2023/07/11 01:13:39;;;;;;;15.50;11.40;;;;;;;19.31;95.16;97905.48;106098;1282;24071;-76
2023/07/11 01:16:06;;;;;;;12.80;11.40;;;;;;;19.26;94.22;97905.83;106305;1282;22576;-76
2023/07/11 01:18:36;;;;;;;17.50;11.20;;;;;;;19.23;94.39;97912.63;106266;1282;25492;-76
2023/07/11 01:21:04;;;;;;;14.70;11.80;;;;;;;19.21;95.33;97911.66;106301;1282;25417;-75
2023/07/11 01:23:33;;;;;;;11.90;10.60;;;;;;;19.19;95.18;97908.86;106320;1281;23965;-76
2023/07/11 01:26:05;;;;;;;17.20;11.50;;;;;;;19.14;95.30;97906.50;106207;1282;22547;-76
2023/07/11 01:28:33;;;;;;;14.00;11.70;;;;;;;19.12;95.68;97903.48;106367;1282;22557;-76
2023/07/11 01:30:59;;;;;;;13.00;11.70;;;;;;;19.08;96.52;97901.35;106275;1282;24362;-76
2023/07/11 01:33:26;;;;;;;12.90;10.70;;;;;;;19.04;97.09;97908.39;106283;1282;23491;-75
2023/07/11 01:35:54;;;;;;;13.90;11.40;;;;;;;19.02;97.35;97908.56;106053;1282;24850;-77
2023/07/11 01:38:24;;;;;;;14.30;12.00;;;;;;;19.00;96.66;97908.35;106272;1281;22669;-77
2023/07/11 01:40:51;;;;;;;26.90;11.50;;;;;;;18.98;96.90;97903.39;106423;1281;25394;-77
2023/07/11 01:43:20;;;;;;;13.90;10.90;;;;;;;18.96;97.05;97901.00;106317;1282;25282;-75
2023/07/11 01:45:47;;;;;;;13.70;11.60;;;;;;;18.93;96.61;97903.04;106352;1282;22572;-77
2023/07/11 01:48:13;;;;;;;13.50;11.80;;;;;;;18.91;97.41;97902.12;106277;1281;22549;-75
2023/07/11 01:50:40;;;;;;;13.80;11.70;;;;;;;18.87;97.45;97904.52;106230;1282;22534;-75
2023/07/11 01:53:07;;;;;;;17.70;10.70;;;;;;;18.85;97.39;97909.71;106412;1282;23933;-78
2023/07/11 01:55:34;;;;;;;11.70;10.50;;;;;;;18.83;97.05;97909.58;106353;1281;24240;-77
2023/07/11 01:58:00;;;;;;;12.40;10.70;;;;;;;18.81;97.30;97907.57;106172;1281;25291;-76
2023/07/11 02:00:27;;;;;;;12.50;10.60;;;;;;;18.75;96.97;97907.35;106216;1282;27726;-76
2023/07/11 02:02:54;;;;;;;11.50;10.30;;;;;;;18.72;96.68;97914.59;106420;1281;26192;-76
2023/07/11 02:05:21;;;;;;;13.60;10.60;;;;;;;18.71;97.46;97918.85;106342;1281;25719;-77
2023/07/11 02:07:48;;;;;;;12.50;10.50;;;;;;;18.67;97.57;97919.59;106383;1281;22610;-76
2023/07/11 02:10:15;;;;;;;13.00;10.20;;;;;;;18.62;97.59;97917.77;106274;1281;22593;-76
2023/07/11 02:12:42;;;;;;;11.30;10.20;;;;;;;18.58;97.18;97925.77;106306;1281;22566;-77
2023/07/11 02:15:11;;;;;;;11.70;10.10;;;;;;;18.55;97.38;97929.91;106278;1281;22552;-76
2023/07/11 02:17:38;;;;;;;12.10;10.20;;;;;;;18.53;97.33;97931.80;106284;1282;22650;-76
2023/07/11 02:20:07;;;;;;;12.20;10.80;;;;;;;18.52;97.64;97932.85;106324;1282;22541;-76
2023/07/11 02:22:36;;;;;;;12.50;11.20;;;;;;;18.50;97.72;97937.65;106281;1281;22566;-77
2023/07/11 02:25:03;;;;;;;14.00;11.60;;;;;;;18.49;97.63;97938.47;106269;1281;24193;-77
2023/07/11 02:27:30;;;;;;;14.00;12.30;;;;;;;18.49;98.50;97939.23;106325;1282;24708;-75
2023/07/11 02:29:56;;;;;;;13.80;12.10;;;;;;;18.44;98.06;97938.80;106159;1282;22537;-76
2023/07/11 02:32:23;;;;;;;17.10;12.20;;;;;;;18.43;98.59;97947.36;106297;1281;22566;-75
2023/07/11 02:34:50;;;;;;;16.50;12.90;;;;;;;18.38;98.84;97945.59;106312;1282;25303;-76
2023/07/11 02:37:16;;;;;;;16.90;12.10;;;;;;;18.36;98.49;97946.56;106279;1282;25361;-76
2023/07/11 02:39:43;;;;;;;13.40;11.80;;;;;;;18.34;97.97;97945.01;106368;1282;25291;-76
2023/07/11 02:42:10;;;;;;;12.70;11.40;;;;;;;18.32;97.57;97940.13;106293;1282;22547;-76
2023/07/11 02:44:37;;;;;;;12.90;11.60;;;;;;;18.31;98.15;97939.48;106330;1282;22567;-76
2023/07/11 02:47:04;;;;;;;12.90;11.60;;;;;;;18.29;98.13;97937.55;106281;1282;25364;-76
2023/07/11 02:49:30;;;;;;;13.20;11.10;;;;;;;18.27;98.16;97936.09;106345;1282;22588;-76
2023/07/11 02:51:57;;;;;;;12.60;11.30;;;;;;;18.24;97.91;97938.27;106314;1282;26541;-75
2023/07/11 02:54:23;;;;;;;16.10;12.60;;;;;;;18.22;98.02;97939.08;106298;1282;24264;-76
2023/07/11 02:56:50;;;;;;;14.30;12.40;;;;;;;18.21;97.71;97939.07;106312;1282;25413;-76
2023/07/11 02:59:17;;;;;;;13.80;12.30;;;;;;;18.21;98.29;97936.25;106335;1282;24501;-75
2023/07/11 03:01:43;;;;;;;15.40;13.70;;;;;;;18.19;98.04;97938.21;106307;1282;23294;-76
2023/07/11 03:04:10;;;;;;;16.50;12.70;;;;;;;18.15;98.39;97939.13;106322;1282;25418;-76
2023/07/11 03:06:36;;;;;;;13.80;11.10;;;;;;;18.13;98.69;97943.59;106335;1282;22541;-76
2023/07/11 03:09:03;;;;;;;12.30;10.90;;;;;;;18.13;98.75;97948.48;106287;1282;26733;-76
2023/07/11 03:11:30;;;;;;;10.80;9.70;;;;;;;18.10;98.56;97947.55;106303;1282;22555;-76
2023/07/11 03:13:56;;;;;;;12.10;9.50;;;;;;;18.06;98.74;97951.34;106313;1282;24205;-75
2023/07/11 03:16:24;;;;;;;12.40;9.10;;;;;;;18.04;98.51;97952.21;106166;1282;24208;-76
2023/07/11 03:18:50;;;;;;;13.70;9.50;;;;;;;18.02;98.51;97949.34;106346;1282;22537;-76
2023/07/11 03:21:17;;;;;;;11.70;9.20;;;;;;;18.02;98.12;97948.09;106431;1282;22570;-76
2023/07/11 03:23:44;;;;;;;12.20;9.20;;;;;;;18.01;98.10;97945.58;106336;1282;22721;-75
2023/07/11 03:26:10;;;;;;;12.00;9.30;;;;;;;17.98;97.64;97948.47;106280;1282;22543;-76
2023/07/11 03:28:37;;;;;;;11.80;9.40;;;;;;;17.96;97.87;97955.27;106320;1281;24258;-77
2023/07/11 03:31:03;;;;;;;12.00;9.40;;;;;;;17.94;97.55;97956.84;106311;1282;25300;-77
2023/07/11 03:33:30;;;;;;;12.20;10.40;;;;;;;17.98;97.73;97956.47;106305;1282;22656;-77
2023/07/11 03:35:57;;;;;;;12.30;10.20;;;;;;;17.99;97.69;97955.19;106329;1282;22586;-76
2023/07/11 03:38:24;;;;;;;12.10;10.80;;;;;;;18.02;97.80;97953.88;106294;1282;25708;-77
2023/07/11 03:40:50;;;;;;;12.00;10.40;;;;;;;18.05;97.59;97954.10;106361;1282;25296;-76
2023/07/11 03:43:17;;;;;;;12.50;10.30;;;;;;;18.08;97.66;97958.23;106304;1282;22538;-77
2023/07/11 03:45:46;;;;;;;19.10;11.50;;;;;;;18.10;97.55;97960.09;106299;1282;25348;-76
2023/07/11 03:48:16;;;;;;;12.30;10.50;;;;;;;18.10;97.69;97958.54;106378;1282;24421;-75
2023/07/11 03:50:43;;;;;;;13.90;11.80;;;;;;;18.11;97.51;97964.25;106283;1282;22705;-77
2023/07/11 03:53:10;;;;;;;13.00;11.70;;;;;;;18.15;97.49;97960.54;106300;1282;25417;-76
2023/07/11 03:55:37;;;;;;;12.80;11.50;;;;;;;18.18;97.47;97961.70;106339;1282;24233;-76
2023/07/11 03:58:04;;;;;;;14.30;12.80;;;;;;;18.19;97.34;97961.98;106294;1282;26520;-75
2023/07/11 04:00:30;;;;;;;15.60;10.80;;;;;;;18.18;96.91;97961.09;106264;1282;23030;-75
2023/07/11 04:02:57;;;;;;;11.80;10.20;;;;;;;18.18;96.90;97962.64;106268;1282;25345;-76
2023/07/11 04:05:24;;;;;;;10.80;9.70;;;;;;;18.20;96.95;97970.02;106275;1265;24350;-75
2023/07/11 04:07:50;;;;;;;11.20;10.00;;;;;;;18.20;97.06;97968.40;106318;1264;22541;-76
2023/07/11 04:10:17;;;;;;;13.10;10.00;;;;;;;18.19;97.18;97972.66;106345;1282;24402;-75
2023/07/11 04:12:44;;;;;;;14.50;11.40;;;;;;;18.19;96.80;97973.98;106320;1282;25414;-76
2023/07/11 04:15:11;;;;;;;13.30;10.40;;;;;;;18.16;96.58;97981.30;106275;1282;24246;-76
2023/07/11 04:17:37;;;;;;;12.40;9.80;;;;;;;18.17;96.61;97977.95;106355;1282;22540;-76
2023/07/11 04:20:05;;;;;;;12.10;9.50;;;;;;;18.15;96.61;97982.60;106315;1282;25298;-76
2023/07/11 04:22:32;;;;;;;10.20;9.10;;;;;;;18.17;96.59;97984.36;106278;1271;23386;-76
2023/07/11 04:24:58;;;;;;;10.70;9.70;;;;;;;18.19;96.60;97981.68;106223;1282;22665;-76
2023/07/11 04:27:25;;;;;;;11.70;10.00;;;;;;;18.16;96.18;97982.94;106307;1282;22640;-76
2023/07/11 04:29:52;;;;;;;11.10;9.50;;;;;;;18.12;96.08;97987.75;106311;1282;25377;-76
2023/07/11 04:32:18;;;;;;;11.60;9.90;;;;;;;18.12;96.16;97983.08;106291;1282;25258;-75
2023/07/11 04:34:45;;;;;;;10.70;9.60;;;;;;;18.10;96.05;97989.48;106308;1260;25632;-75
2023/07/11 04:37:12;;;;;;;10.50;9.50;;;;;;;18.09;95.88;97989.53;106256;1282;23808;-76
2023/07/11 04:39:39;;;;;;;11.80;8.90;;;;;;;18.11;95.85;97990.73;106282;1282;22567;-76
2023/07/11 04:42:06;;;;;;;13.70;9.20;;;;;;;18.10;95.91;97993.14;106468;1282;23828;-76
2023/07/11 04:44:33;;;;;;;11.20;10.10;;;;;;;18.08;95.69;97996.81;106219;1282;170406;-75
2023/07/11 04:47:00;;;;;;;13.00;10.30;;;;;;;18.06;95.56;98000.50;106286;1282;22635;-76
2023/07/11 04:49:27;;;;;;;12.80;9.20;;;;;;;18.06;95.38;97997.94;106377;1282;22716;-76
2023/07/11 04:51:54;;;;;;;10.90;9.30;;;;;;;18.09;95.45;97999.96;106289;1282;22536;-76
2023/07/11 04:54:20;;;;;;;12.10;9.50;;;;;;;18.10;95.64;98007.31;106334;1281;22818;-76
2023/07/11 04:56:55;;;;;;;14.10;10.90;;;;;;;18.10;95.32;98008.64;106323;1282;25398;-76
2023/07/11 04:59:23;;;;;;;11.00;9.90;;;;;;;18.12;95.25;98012.35;106363;1282;22685;-77
2023/07/11 05:01:50;;;;;;;10.10;8.80;;;;;;;18.14;95.12;98015.92;106385;1282;22552;-76
2023/07/11 05:04:16;;;;;;;10.30;9.00;;;;;;;18.15;95.05;98013.05;106362;1282;25404;-77
2023/07/11 05:06:44;;;;;;;11.50;9.60;;;;;;;18.18;94.99;98016.34;106341;1282;22553;-77
2023/07/11 05:09:11;;;;;;;11.20;9.30;;;;;;;18.23;94.68;98016.33;106308;1282;25289;-76
2023/07/11 05:11:37;;;;;;;12.80;10.40;;;;;;;18.24;94.08;98016.89;106327;1272;22659;-76
2023/07/11 05:14:04;;;;;;;11.50;9.30;;;;;;;18.26;93.73;98020.08;106320;1282;22763;-77
2023/07/11 05:16:31;;;;;;;10.30;9.30;;;;;;;18.30;93.96;98014.04;106328;1282;23161;-77
2023/07/11 05:18:58;;;;;;;13.50;10.00;;;;;;;18.37;94.03;98019.14;106363;1282;24202;-77
2023/07/11 05:21:27;;;;;;;11.20;8.80;;;;;;;18.49;93.58;98020.40;106263;1282;24241;-77
2023/07/11 05:23:56;;;;;;;16.50;9.10;;;;;;;18.52;93.04;98022.67;106329;1282;24036;-77
2023/07/11 05:26:23;;;;;;;10.30;7.60;;;;;;;18.55;92.08;98018.83;106320;1282;22550;-77
2023/07/11 05:28:50;;;;;;;11.00;8.20;;;;;;;18.53;92.16;98020.70;106335;1282;22635;-78
2023/07/11 05:31:18;;;;;;;10.30;8.20;;;;;;;18.61;91.90;98020.20;106576;1282;22550;-76
2023/07/11 05:33:45;;;;;;;11.70;8.00;;;;;;;18.69;91.77;98021.17;106291;1282;23462;-76
2023/07/11 05:36:33;;;;;;;11.60;9.40;;;;;;;18.76;91.48;98020.92;106332;1271;24211;-76
2023/07/11 05:39:02;;;;;;;10.40;8.50;;;;;;;18.88;91.24;98022.41;106397;1282;22614;-76
2023/07/11 05:41:29;;;;;;;10.10;8.10;;;;;;;18.94;90.58;98028.59;106336;1282;22558;-77
2023/07/11 05:43:56;;;;;;;10.30;8.10;;;;;;;18.95;89.88;98028.93;106404;1282;22586;-77
2023/07/11 05:46:24;;;;;;;11.40;8.10;;;;;;;18.93;89.43;98033.23;106289;1282;24245;-76
2023/07/11 05:48:53;;;;;;;13.40;8.30;;;;;;;18.99;89.39;98033.31;106321;1282;25278;-77
2023/07/11 05:51:20;;;;;;;9.60;8.60;;;;;;;19.08;88.79;98035.04;106411;1282;24084;-75
2023/07/11 05:53:50;;;;;;;8.90;7.70;;;;;;;19.11;87.64;98033.23;106304;1282;24213;-75
2023/07/11 05:56:19;;;;;;;9.20;8.10;;;;;;;19.10;87.69;98028.97;106310;1282;22667;-75
2023/07/11 05:58:48;;;;;;;9.80;8.00;;;;;;;19.10;87.48;98026.58;106284;1281;22749;-75
2023/07/11 06:01:18;;;;;;;11.40;8.00;;;;;;;19.07;87.20;98032.97;106429;1282;25283;-76
2023/07/11 06:03:47;;;;;;;8.60;7.70;;;;;;;19.09;87.53;98027.02;106401;1282;24032;-75
2023/07/11 06:06:18;;;;;;;11.90;9.10;;;;;;;19.24;86.90;98027.08;106296;1282;24077;-76
2023/07/11 06:08:46;;;;;;;10.40;9.20;;;;;;;19.31;85.98;98030.91;106307;1282;22541;-76
2023/07/11 06:11:12;;;;;;;12.40;9.10;;;;;;;19.27;85.67;98030.95;106295;1281;22971;-76
2023/07/11 06:13:39;;;;;;;12.80;8.90;;;;;;;19.35;85.64;98035.06;106314;1282;22575;-76
2023/07/11 06:16:13;;;;;;;10.60;8.50;;;;;;;19.37;84.83;98036.76;106270;1282;22612;-76
2023/07/11 06:18:40;;;;;;;12.00;8.60;;;;;;;19.39;85.05;98036.56;106173;1282;25464;-76
2023/07/11 06:21:09;;;;;;;9.90;8.90;;;;;;;19.39;84.48;98036.49;106281;1270;24205;-76
2023/07/11 06:23:36;;;;;;;11.60;8.40;;;;;;;19.44;83.66;98035.69;106428;1282;22773;-75
2023/07/11 06:26:04;;;;;;;10.80;8.50;;;;;;;19.52;83.66;98033.98;106289;1282;25356;-76
2023/07/11 06:28:32;;;;;;;10.50;8.90;;;;;;;19.65;83.62;98027.90;106334;1282;24420;-76
2023/07/11 06:31:00;;;;;;;12.00;8.40;;;;;;;19.74;83.18;98029.84;106417;1282;22558;-76
2023/07/11 06:33:29;;;;;;;9.70;8.00;;;;;;;19.88;83.00;98026.73;106360;1282;22595;-76
2023/07/11 06:35:57;;;;;;;8.70;7.80;;;;;;;20.01;81.72;98028.57;106384;1282;22648;-76
2023/07/11 06:38:24;;;;;;;9.00;7.40;;;;;;;20.11;81.26;98020.20;106371;1282;23150;-76
2023/07/11 06:40:52;;;;;;;10.60;7.10;;;;;;;20.27;81.10;98022.55;106329;1282;22540;-77
2023/07/11 06:43:21;;;;;;;9.40;7.30;;;;;;;20.37;78.70;98026.03;106345;1282;25395;-76
2023/07/11 06:45:49;;;;;;;9.20;7.70;;;;;;;20.43;78.85;98021.15;106383;1282;23952;-76
2023/07/11 06:48:18;;;;;;;10.50;8.00;;;;;;;20.55;79.07;98020.31;106381;1282;25295;-76
2023/07/11 06:51:11;;;;;;;11.40;7.80;;;;;;;20.64;77.64;98017.92;106382;1281;22538;-76
2023/07/11 06:53:38;;;;;;;8.40;7.00;;;;;;;20.73;76.47;98023.09;106266;1282;22549;-76
2023/07/11 06:56:05;;;;;;;10.50;7.30;;;;;;;20.80;76.24;98017.52;106345;1282;25556;-76
2023/07/11 06:58:32;;;;;;;9.60;7.00;;;;;;;20.84;75.93;98019.48;106312;1281;22541;-76
2023/07/11 07:01:05;;;;;;;9.90;7.80;;;;;;;20.88;75.34;98019.68;106283;1282;25470;-76
2023/07/11 07:03:37;;;;;;;9.00;7.00;;;;;;;20.87;74.81;98017.48;106269;1282;25303;-75
2023/07/11 07:06:13;;;;;;;9.90;7.20;;;;;;;20.89;74.40;98014.47;106352;1282;25467;-76
2023/07/11 07:08:40;;;;;;;11.20;8.20;;;;;;;20.89;73.51;98017.38;106370;1282;25431;-76
2023/07/11 07:11:07;;;;;;;12.00;6.80;;;;;;;20.89;73.11;98014.30;106292;1282;23917;-79
2023/07/11 07:13:35;;;;;;;9.80;7.50;;;;;;;20.90;72.75;98022.08;106366;1282;24182;-77
2023/07/11 07:16:03;;;;;;;10.40;6.60;;;;;;;20.97;72.53;98017.66;106302;1282;24243;-76
2023/07/11 07:18:33;;;;;;;9.90;7.60;;;;;;;21.06;72.59;98018.52;106297;1282;22570;-76
2023/07/11 07:21:03;;;;;;;8.60;6.90;;;;;;;21.15;72.18;98014.36;106348;1282;22532;-76
2023/07/11 07:23:31;;;;;;;12.00;7.60;;;;;;;21.25;72.04;98015.09;106352;1282;22561;-76
2023/07/11 07:26:00;;;;;;;7.00;6.20;;;;;;;21.36;70.88;98019.03;106321;1281;22583;-76
2023/07/11 07:28:28;;;;;;;11.90;7.10;;;;;;;21.34;70.40;98017.66;106250;1282;22669;-76
2023/07/11 07:30:57;;;;;;;10.30;7.20;;;;;;;21.33;69.87;98020.00;106335;1282;24143;-76
2023/07/11 07:33:26;;;;;;;9.70;7.00;;;;;;;21.32;69.82;98020.15;106359;1282;22985;-76
2023/07/11 07:35:59;;;;;;;9.30;7.30;;;;;;;21.42;70.32;98016.56;106321;1282;22536;-76
2023/07/11 07:38:27;;;;;;;8.50;7.10;;;;;;;21.49;69.95;98010.09;106300;1282;22861;-76
2023/07/11 07:40:58;;;;;;;11.20;6.90;;;;;;;21.50;69.47;98013.71;106313;1282;22627;-77
2023/07/11 07:43:26;;;;;;;9.50;7.80;;;;;;;21.47;69.55;98009.20;106295;1282;25328;-76
2023/07/11 07:45:55;;;;;;;8.70;7.00;;;;;;;21.43;69.54;98016.02;106359;1282;24159;-76
2023/07/11 07:48:22;;;;;;;10.60;7.70;;;;;;;21.53;69.90;98011.16;106308;1282;22535;-76
2023/07/11 07:50:49;;;;;;;12.80;7.70;;;;;;;21.66;69.72;98009.48;106315;1282;24206;-77
2023/07/11 07:53:17;;;;;;;10.50;7.40;;;;;;;21.76;69.54;98003.20;106283;1282;25410;-76
2023/07/11 07:55:44;;;;;;;12.90;7.50;;;;;;;21.84;69.40;98007.78;106286;1282;22585;-76
2023/07/11 07:58:13;;;;;;;8.20;7.30;;;;;;;21.71;68.57;98014.66;106256;1282;22562;-77
2023/07/11 08:00:45;;;;;;;11.40;7.10;;;;;;;21.70;68.62;98016.13;106301;1282;25239;-76
2023/07/11 08:03:11;;;;;;;12.50;7.40;;;;;;;21.77;68.70;98012.23;106286;1282;24280;-76
2023/07/11 08:05:38;;;;;;;8.90;7.00;;;;;;;21.89;68.36;98011.48;106284;1282;23949;-76
2023/07/11 08:08:05;;;;;;;11.00;7.50;;;;;;;22.04;68.18;98015.89;106280;1282;24222;-76
2023/07/11 08:10:33;;;;;;;10.70;7.50;;;;;;;22.15;67.61;98007.73;106293;1282;22542;-76
2023/07/11 08:12:59;;;;;;;8.30;7.00;;;;;;;22.10;66.46;98010.58;106279;1274;22657;-76
2023/07/11 08:15:26;;;;;;;8.80;6.70;;;;;;;21.95;66.73;98017.56;106317;1282;22540;-76
2023/07/11 08:17:53;;;;;;;9.00;7.20;;;;;;;22.02;66.56;98019.71;106246;1282;25428;-76
2023/07/11 08:20:20;;;;;;;8.40;7.40;;;;;;;22.08;66.21;98016.35;106260;1282;25297;-77
2023/07/11 08:22:46;;;;;;;10.00;7.40;;;;;;;22.08;65.90;98022.45;106306;1282;22789;-76
2023/07/11 08:25:14;;;;;;;7.50;6.10;;;;;;;22.09;65.79;98019.58;106325;1281;22546;-76
2023/07/11 08:27:41;;;;;;;11.90;7.50;;;;;;;22.19;65.85;98016.50;106296;1282;22564;-76
2023/07/11 08:30:08;;;;;;;11.10;7.10;;;;;;;22.36;65.83;98016.73;106267;1281;25429;-76
2023/07/11 08:32:35;;;;;;;9.10;6.50;;;;;;;22.46;64.22;98012.52;106292;1282;22536;-77
2023/07/11 08:35:01;;;;;;;8.80;6.50;;;;;;;22.56;64.56;98017.59;106325;1282;26653;-76
2023/07/11 08:37:28;;;;;;;9.00;6.40;;;;;;;22.56;64.54;98012.34;106312;1282;22888;-76
2023/07/11 08:39:55;;;;;;;9.10;7.00;;;;;;;22.54;64.69;98014.36;106328;1281;24205;-76
2023/07/11 08:42:34;;;;;;;7.70;6.10;;;;;;;22.55;64.81;98016.72;106345;1281;25407;-76
2023/07/11 08:45:22;;;;;;;8.50;6.80;;;;;;;22.57;65.08;98015.48;106374;1282;22643;-76
2023/07/11 08:47:59;;;;;;;9.30;6.60;;;;;;;22.59;64.21;98016.22;106419;1281;22794;-76
2023/07/11 08:50:31;;;;;;;9.40;6.30;;;;;;;22.62;63.75;98014.77;106307;1281;22533;-76
2023/07/11 08:53:13;;;;;;;8.40;6.60;;;;;;;22.62;63.21;98010.92;106334;1281;24208;-76
2023/07/11 08:55:47;;;;;;;9.60;6.90;;;;;;;22.58;62.66;98013.61;106363;1281;22543;-76
2023/07/11 08:58:24;;;;;;;12.00;7.50;;;;;;;22.64;63.20;98010.46;106345;1282;24238;-76
2023/07/11 09:00:52;;;;;;;8.70;7.00;;;;;;;22.88;63.43;98015.02;106310;1282;25393;-76
2023/07/11 09:03:44;;;;;;;8.30;6.70;;;;;;;22.94;62.37;98020.98;106362;1282;22669;-77
2023/07/11 09:06:17;;;;;;;9.20;6.20;;;;;;;23.10;62.69;98009.91;106290;1281;24104;-76
2023/07/11 09:08:46;;;;;;;8.90;6.60;;;;;;;23.23;62.03;98014.28;106415;1282;22540;-76
2023/07/11 09:11:24;;;;;;;11.20;7.00;;;;;;;23.29;62.08;98014.25;106382;1281;25261;-76
2023/07/11 09:14:01;;;;;;;11.00;6.30;;;;;;;23.29;61.33;98014.33;106345;1281;25349;-77
2023/07/11 09:17:06;;;;;;;11.10;6.20;;;;;;;23.20;61.26;98019.05;106355;1281;22685;-77
2023/07/11 09:20:08;;;;;;;;;;;;;;;23.35;60.86;98021.44;106198;1282;22674;-75
2023/07/11 09:22:56;;;;;;;9.70;6.30;;;;;;;23.50;60.57;98016.15;105767;1288;22546;-75
2023/07/11 09:25:44;;;;;;;8.60;6.20;;;;;;;23.59;60.36;98011.97;105838;1288;22553;-75
2023/07/11 09:28:23;;;;;;;8.80;6.10;;;;;;;23.44;59.26;98020.27;105868;1289;22604;-75
2023/07/11 09:30:55;;;;;;;7.60;6.50;;;;;;;23.18;59.77;98020.36;105855;1288;22608;-75
2023/07/11 09:33:33;;;;;;;10.10;6.80;;;;;;;23.11;60.33;98019.04;105794;1289;25303;-76
2023/07/11 09:36:02;;;;;;;6.60;5.60;;;;;;;23.25;59.82;98018.14;105767;1289;25455;-77
2023/07/11 09:38:31;;;;;;;7.90;5.80;;;;;;;23.39;59.91;98012.69;105750;1289;22743;-75
2023/07/11 09:41:18;;;;;;;7.50;6.70;;;;;;;23.65;60.22;98019.41;105798;1289;24384;-75
2023/07/11 09:43:45;;;;;;;8.70;6.40;;;;;;;23.80;59.04;98017.48;105804;1289;22766;-75
2023/07/11 09:46:14;;;;;;;8.40;6.30;;;;;;;23.85;58.08;98017.98;105792;1289;23019;-75
2023/07/11 09:48:44;;;;;;;8.60;6.20;;;;;;;23.88;58.22;98005.66;105878;1288;22554;-76
2023/07/11 09:51:14;;;;;;;10.50;6.00;;;;;;;23.95;57.99;98014.02;105869;1288;24409;-76
2023/07/11 09:53:46;;;;;;;7.60;5.80;;;;;;;23.81;57.26;98011.98;105830;1288;26674;-75
2023/07/11 09:56:16;;;;;;;10.10;6.40;;;;;;;23.59;57.56;98009.84;105891;1282;22761;-76
2023/07/11 09:58:50;;;;;;;8.60;6.40;;;;;;;23.61;57.43;98009.62;106347;1282;22769;-75
2023/07/11 10:01:30;;;;;;;8.00;5.40;;;;;;;23.83;56.53;98008.20;106408;1282;25301;-75
2023/07/11 10:03:59;;;;;;;6.30;5.30;;;;;;;24.06;56.10;98005.92;106319;1282;24344;-77
2023/07/11 10:06:51;;;;;;;7.60;6.20;;;;;;;24.15;55.63;98012.24;106389;1282;25347;-75
2023/07/11 10:09:27;;;;;;;8.30;5.50;;;;;;;24.24;55.42;98010.56;106343;1281;22559;-76
2023/07/11 10:11:54;;;;;;;7.90;5.10;;;;;;;24.26;54.17;98011.42;106303;1282;22624;-76
2023/07/11 10:14:26;;;;;;;6.30;4.70;;;;;;;24.08;54.22;98006.39;106306;1282;23949;-76
2023/07/11 10:16:54;;;;;;;9.30;4.90;;;;;;;24.05;53.68;98004.10;106372;1282;23919;-76
2023/07/11 10:19:21;;;;;;;7.20;4.40;;;;;;;24.15;51.05;98013.42;106418;1281;22567;-76
2023/07/11 10:21:49;;;;;;;7.20;4.40;;;;;;;24.26;50.86;98027.80;106552;1281;25520;-76
2023/07/11 10:24:23;;;;;;;7.30;4.50;;;;;;;24.39;49.82;98012.98;106376;1282;26547;-77
2023/07/11 10:26:58;;;;;;;8.60;5.10;;;;;;;24.59;51.81;98004.89;106338;1282;22581;-76
2023/07/11 10:29:29;;;;;;;7.30;5.40;;;;;;;24.64;51.91;98013.95;106363;1282;24275;-76
2023/07/11 10:32:05;;;;;;;8.00;4.60;;;;;;;24.49;52.35;98013.59;106307;1281;22549;-76
2023/07/11 10:34:56;;;;;;;9.20;5.10;;;;;;;24.19;51.82;98018.64;106324;1282;23918;-75
2023/07/11 10:37:36;;;;;;;5.80;4.80;;;;;;;24.12;50.95;98020.17;106373;1281;22704;-75
2023/07/11 10:40:19;;;;;;;8.50;4.70;;;;;;;24.39;51.31;98006.22;106326;1282;22643;-75
2023/07/11 10:42:54;;;;;;;5.90;4.40;;;;;;;24.61;49.03;98011.73;106309;1282;23945;-76
2023/07/11 10:45:25;;;;;;;6.00;4.20;;;;;;;24.81;48.75;98011.73;106322;1282;22548;-76
2023/07/11 10:48:10;;;;;;;7.80;4.40;;;;;;;25.07;48.41;98006.02;106345;1282;22536;-76
2023/07/11 10:50:46;;;;;;;7.10;5.10;;;;;;;25.29;48.27;98005.26;106315;1282;25292;-76
2023/07/11 10:53:39;;;;;;;8.30;4.20;;;;;;;25.22;48.73;98009.36;106329;1282;22688;-75
2023/07/11 10:56:15;;;;;;;6.00;4.20;;;;;;;24.97;48.99;98003.31;106140;1281;22696;-75
2023/07/11 10:58:42;;;;;;;7.10;4.20;;;;;;;25.07;48.03;97999.09;106406;1282;22557;-76
2023/07/11 11:01:36;;;;;;;5.90;4.20;;;;;;;25.29;48.07;97994.55;106295;1282;22652;-76
2023/07/11 11:04:37;;;;;;;5.70;4.30;;;;;;;25.31;48.01;97998.73;106314;1281;24277;-76
2023/07/11 11:07:09;;;;;;;6.00;4.00;;;;;;;25.45;48.09;97994.38;106338;1281;22591;-76
2023/07/11 11:10:10;;;;;;;6.30;4.50;;;;;;;25.36;47.72;97997.46;106338;1282;25287;-76
2023/07/11 11:12:41;;;;;;;6.10;3.80;;;;;;;25.33;46.36;98000.08;106339;1282;25259;-76
2023/07/11 11:15:22;;;;;;;5.90;3.90;;;;;;;25.43;46.29;98000.69;106308;1281;24349;-76
2023/07/11 11:17:55;;;;;;;6.50;3.90;;;;;;;25.48;46.27;98001.88;106362;1281;22541;-76
2023/07/11 11:20:32;;;;;;;8.90;4.80;;;;;;;25.34;46.28;98000.77;106329;1272;24200;-76
2023/07/11 11:23:11;;;;;;;7.70;4.70;;;;;;;25.21;46.07;98003.13;106328;1281;25311;-76
2023/07/11 11:26:17;;;;;;;5.10;4.30;;;;;;;25.09;46.04;98002.08;106341;1281;22635;-76
2023/07/11 11:28:57;;;;;;;9.80;3.90;;;;;;;25.38;46.47;97996.28;106445;1281;22667;-76
2023/07/11 11:31:29;;;;;;;10.10;4.20;;;;;;;25.59;44.78;97995.62;106325;1282;26278;-77